Time;durP1;ratioP1;P1;durP2;ratioP2;P2;SDS_P1;SDS_P2;PMS_P1;PMS_P2;Temp;Humidity;BMP_temperature;BMP_pressure;BME280_temperature;BME280_humidity;BME280_pressure;Samples;Min_cycle;Max_cycle;Signal;HPM_P1;HPM_P2
2023/09/05 00:00:16;;;;;;;6.63;3.15;;;13.70;99.90;;;-144.05;68.06;56918.94;5036253;28;20086;-78
2023/09/05 00:02:48;;;;;;;7.78;3.92;;;17.70;99.90;;;-144.05;68.46;56895.56;5050349;28;20028;-80
2023/09/05 00:05:15;;;;;;;3.88;2.85;;;13.20;99.90;;;-144.05;68.66;56908.31;5035149;28;20385;-79
2023/09/05 00:07:41;;;;;;;5.85;3.25;;;17.40;99.90;;;-144.05;68.67;56916.81;5035314;28;20355;-80
2023/09/05 00:10:12;;;;;;;7.70;3.30;;;16.50;99.90;;;-144.05;68.19;56925.28;5033240;28;20040;-79
2023/09/05 00:12:41;;;;;;;5.63;3.03;;;17.40;99.90;;;-144.05;67.75;56916.81;5034805;28;20037;-79
2023/09/05 00:15:12;;;;;;;6.05;2.85;;;18.00;99.90;;;-144.05;67.92;56929.53;5049459;28;20068;-79
2023/09/05 00:17:40;;;;;;;4.25;3.15;;;17.70;99.90;;;-144.05;68.00;56891.31;5049213;28;20033;-78
2023/09/05 00:20:07;;;;;;;5.90;3.25;;;17.60;99.90;;;-144.05;68.28;56916.81;5033989;28;20033;-78
2023/09/05 00:22:35;;;;;;;7.00;3.13;;;17.20;99.90;;;-144.05;68.40;56908.31;5033898;28;20085;-78
2023/09/05 00:25:02;;;;;;;4.57;2.67;;;17.50;99.90;;;-144.05;68.55;56906.19;5034127;28;20523;-78
2023/09/05 00:27:29;;;;;;;6.10;3.17;;;17.20;99.90;;;-144.05;69.31;56914.69;5034364;28;20075;-79
2023/09/05 00:29:57;;;;;;;4.55;3.33;;;16.90;99.90;;;-144.05;69.80;56910.44;5033970;28;20045;-79
2023/09/05 00:32:22;;;;;;;6.25;3.40;;;16.60;99.90;;;-144.05;70.78;56910.44;5034326;28;20033;-78
2023/09/05 00:34:48;;;;;;;4.78;3.28;;;16.60;99.90;;;-144.05;71.87;56912.56;5033248;28;20397;-78
2023/09/05 00:37:21;;;;;;;5.47;3.35;;;;;;;-144.05;72.21;56940.16;5034354;28;20025;-80
2023/09/05 00:39:47;;;;;;;7.03;3.25;;;12.50;99.90;;;-144.05;72.68;56887.06;5033903;28;20032;-79
2023/09/05 00:42:14;;;;;;;6.22;3.10;;;16.90;99.90;;;-144.05;72.81;56910.44;5049564;28;20025;-79
2023/09/05 00:44:48;;;;;;;8.50;3.15;;;15.60;99.90;;;-144.05;73.28;56925.28;5034496;28;20414;-78
2023/09/05 00:47:15;;;;;;;4.53;3.28;;;16.20;99.90;;;-144.05;73.32;56906.19;5034162;28;20028;-78
2023/09/05 00:49:47;;;;;;;6.95;3.05;;;11.70;99.90;;;-144.05;73.51;56940.16;5034106;28;20017;-80
2023/09/05 00:52:15;;;;;;;6.22;3.22;;;15.20;99.90;;;-144.05;74.14;56884.94;5034279;28;20529;-80
2023/09/05 00:54:42;;;;;;;7.30;3.38;;;16.50;99.90;;;-144.05;74.79;56901.94;5047675;28;20125;-79
2023/09/05 00:57:17;;;;;;;4.90;2.88;;;12.20;99.90;;;-144.05;75.12;56878.56;5031577;28;20037;-79
2023/09/05 00:59:44;;;;;;;5.23;2.97;;;12.30;99.90;;;-144.05;75.35;56906.19;5033350;28;20029;-79
2023/09/05 01:02:11;;;;;;;6.90;3.33;;;;;;;-144.05;75.98;56887.06;5033963;28;20396;-79
2023/09/05 01:04:37;;;;;;;6.97;3.55;;;16.30;99.90;;;-144.05;76.35;56940.16;5033658;28;20473;-78
2023/09/05 01:07:42;;;;;;;4.78;3.47;;;11.90;99.90;;;-144.05;76.89;56884.94;5032552;28;20049;-78
2023/09/05 01:10:38;;;;;;;5.25;3.80;;;16.00;99.90;;;-144.05;77.28;56897.69;5014675;28;20049;-78
2023/09/05 01:13:04;;;;;;;6.25;4.07;;;16.10;99.90;;;-144.05;77.70;56901.94;5035953;28;20519;-79
2023/09/05 01:15:30;;;;;;;4.45;3.22;;;15.80;99.90;;;-144.05;78.38;56895.56;5051778;28;20374;-80
2023/09/05 01:17:57;;;;;;;6.85;3.58;;;;;;;-144.05;78.62;56891.31;5036098;28;20021;-80
2023/09/05 01:20:45;;;;;;;7.93;4.18;;;14.90;99.90;;;-144.05;79.18;56908.31;5034568;28;20052;-78
2023/09/05 01:23:24;;;;;;;5.18;3.65;;;12.40;99.90;;;-144.05;79.63;56895.56;5033212;28;20021;-79
2023/09/05 01:25:51;;;;;;;6.97;3.95;;;16.30;99.90;;;-144.05;79.43;56906.19;5033432;28;20099;-78
2023/09/05 01:28:23;;;;;;;4.72;3.33;;;11.90;99.90;;;-144.05;79.50;56882.81;5032894;28;20038;-80
2023/09/05 01:30:50;;;;;;;4.65;3.55;;;12.00;99.90;;;-144.05;79.74;56891.31;5033022;28;20104;-81
2023/09/05 01:33:16;;;;;;;7.78;4.82;;;16.10;99.90;;;-144.05;79.98;56918.94;5033878;28;20428;-79
2023/09/05 01:35:42;;;;;;;8.15;4.15;;;;;;;-144.05;80.29;56918.94;5034383;28;20489;-79
2023/09/05 01:38:08;;;;;;;5.45;4.63;;;16.10;99.90;;;-144.05;80.35;56889.19;5037913;28;20229;-78
2023/09/05 01:40:34;;;;;;;8.60;4.13;;;15.80;99.90;;;-144.05;80.46;56916.81;5041016;28;20030;-80
2023/09/05 01:43:00;;;;;;;7.28;3.38;;;;;;;-144.05;80.70;56897.69;5041104;28;20037;-78
2023/09/05 01:45:26;;;;;;;12.20;4.50;;;16.10;99.90;;;-144.05;81.36;56897.69;5034158;28;20034;-77
2023/09/05 01:47:52;;;;;;;6.20;4.20;;;16.20;99.90;;;-144.05;81.29;56923.19;5038869;28;20033;-79
2023/09/05 01:50:19;;;;;;;9.45;4.88;;;11.60;99.90;;;-144.05;80.99;56912.56;5042133;28;20033;-79
2023/09/05 01:52:45;;;;;;;7.07;4.50;;;15.40;99.90;;;-144.05;80.89;56912.56;5032131;28;20025;-78
2023/09/05 01:55:11;;;;;;;9.02;4.50;;;16.30;99.90;;;-144.05;80.86;56916.81;5032146;28;20025;-78
2023/09/05 01:57:37;;;;;;;7.32;4.40;;;15.80;99.90;;;-144.05;80.84;56857.34;5032143;28;20144;-78
2023/09/05 02:00:03;;;;;;;8.20;3.85;;;11.50;99.90;;;-144.05;80.44;56929.53;5032095;28;20060;-79
2023/09/05 02:02:29;;;;;;;10.07;4.30;;;15.90;99.90;;;-144.05;80.30;56904.06;5031802;28;20037;-78
2023/09/05 02:04:54;;;;;;;8.10;4.22;;;12.00;99.90;;;-144.05;80.30;56891.31;5031862;28;20538;-77
2023/09/05 02:07:20;;;;;;;7.63;4.20;;;16.00;99.90;;;-144.05;80.57;56921.06;5031960;28;20029;-78
2023/09/05 02:09:46;;;;;;;10.20;4.35;;;16.10;99.90;;;-144.05;80.52;56901.94;5031630;28;20188;-77
2023/09/05 02:12:12;;;;;;;5.57;3.60;;;16.30;99.90;;;-144.05;80.33;56904.06;5031632;28;20500;-78
2023/09/05 02:14:38;;;;;;;5.80;3.90;;;11.60;99.90;;;-144.05;80.20;56887.06;5047259;28;20037;-79
2023/09/05 02:17:04;;;;;;;8.43;3.80;;;;;;;-144.05;79.86;56908.31;5031721;28;20028;-78
2023/09/05 02:19:30;;;;;;;8.82;3.65;;;16.30;99.90;;;-144.05;79.27;56916.81;5031606;28;20025;-78
2023/09/05 02:21:56;;;;;;;6.18;4.07;;;11.40;99.90;;;-144.05;79.03;56844.59;5031925;28;20482;-78
2023/09/05 02:24:22;;;;;;;6.78;3.45;;;12.50;99.90;;;-144.05;78.53;56904.06;5030232;28;20119;-77
2023/09/05 02:26:48;;;;;;;7.88;3.90;;;16.20;99.90;;;-144.05;77.83;56908.31;5031670;28;20026;-78
2023/09/05 02:29:14;;;;;;;8.05;3.90;;;16.40;99.90;;;-144.05;77.54;56901.94;5030174;28;20512;-76
2023/09/05 02:31:40;;;;;;;5.22;3.33;;;;;;;-144.05;76.91;56889.19;5032180;28;20175;-79
2023/09/05 02:34:06;;;;;;;6.63;3.42;;;16.10;99.90;;;-144.05;76.78;56916.81;5039224;28;20037;-79
2023/09/05 02:36:31;;;;;;;7.22;4.28;;;16.40;99.90;;;-144.05;76.54;56918.94;5033854;28;20025;-79
2023/09/05 02:38:58;;;;;;;9.15;4.28;;;16.70;99.90;;;-144.05;76.36;56878.56;5034002;28;20033;-79
2023/09/05 02:41:24;;;;;;;8.93;4.18;;;12.40;99.90;;;-144.05;76.41;56893.44;5034182;28;20042;-79
2023/09/05 02:43:50;;;;;;;9.75;4.22;;;16.40;99.90;;;-144.05;76.76;56897.69;5034006;28;20030;-79
2023/09/05 02:46:16;;;;;;;8.00;3.83;;;;;;;-144.05;77.27;56891.31;5033905;28;20065;-78
2023/09/05 02:48:43;;;;;;;6.47;3.53;;;16.10;99.90;;;-144.05;77.68;56912.56;5032432;28;20025;-81
2023/09/05 02:51:11;;;;;;;4.65;3.40;;;16.50;99.90;;;-144.05;77.97;56925.28;5033220;28;20034;-78
2023/09/05 02:53:38;;;;;;;7.85;3.67;;;16.40;99.90;;;-144.05;78.22;56914.69;5048512;28;20036;-79
2023/09/05 02:56:05;;;;;;;7.18;3.83;;;15.60;99.90;;;-144.05;78.86;56908.31;5033058;28;20028;-79
2023/09/05 02:58:32;;;;;;;6.97;4.25;;;16.20;99.90;;;-144.05;78.95;56887.06;5035713;28;20026;-77
2023/09/05 03:01:07;;;;;;;6.82;3.92;;;16.30;99.90;;;-144.05;78.80;56891.31;5036094;28;20041;-78
2023/09/05 03:03:33;;;;;;;6.13;3.63;;;;;;;-144.05;78.45;56910.44;5051708;28;20111;-79
2023/09/05 03:06:15;;;;;;;5.72;3.50;;;16.10;99.90;;;-144.05;78.37;56891.31;5036072;28;20108;-79
2023/09/05 03:08:44;;;;;;;9.82;3.97;;;16.30;99.90;;;-144.05;78.50;56904.06;5035734;28;20488;-78
2023/09/05 03:11:14;;;;;;;4.82;3.80;;;;;;;-144.05;78.35;56882.81;5033993;28;20045;-80
2023/09/05 03:13:41;;;;;;;5.47;4.03;;;;;;;-144.05;78.67;56916.81;5035801;28;20496;-77
2023/09/05 03:16:07;;;;;;;9.30;4.13;;;;;;;-144.05;79.00;56906.19;5033906;28;20036;-79
2023/09/05 03:18:33;;;;;;;6.30;3.38;;;;;;;-144.05;79.26;56887.06;5035600;28;20548;-78
2023/09/05 03:20:59;;;;;;;4.93;3.63;;;16.20;99.90;;;-144.05;79.38;56914.69;5033624;28;20404;-78
2023/09/05 03:23:25;;;;;;;7.22;3.90;;;11.80;99.90;;;-144.05;79.57;56887.06;5035404;28;20026;-80
2023/09/05 03:25:52;;;;;;;7.32;3.70;;;16.30;99.90;;;-144.05;79.79;56906.19;5035456;28;20468;-79
2023/09/05 03:28:19;;;;;;;6.05;3.50;;;15.90;99.90;;;-144.05;79.72;56910.44;5036266;28;20205;-82
2023/09/05 03:30:45;;;;;;;5.53;3.60;;;;;;;-144.05;80.05;56901.94;5035865;28;20040;-81
2023/09/05 03:33:12;;;;;;;6.68;3.72;;;;;;;-144.05;80.19;56908.31;5037361;28;20032;-80
2023/09/05 03:35:38;;;;;;;6.25;3.75;;;11.40;99.90;;;-144.05;80.43;56916.81;5037977;28;20052;-83
2023/09/05 03:38:07;;;;;;;7.25;3.63;;;16.00;99.90;;;-144.05;80.65;56901.94;5037834;28;20484;-81
2023/09/05 03:40:34;;;;;;;6.43;4.22;;;;;;;-144.05;80.82;56861.56;5035631;28;20109;-81
2023/09/05 03:43:00;;;;;;;6.95;4.40;;;15.60;99.90;;;-144.05;81.29;56908.31;5050687;28;20037;-79
2023/09/05 03:45:30;;;;;;;7.45;4.63;;;15.60;99.90;;;-144.05;81.24;56912.56;5035383;28;20108;-78
2023/09/05 03:47:56;;;;;;;6.80;4.60;;;15.80;99.90;;;-144.05;81.64;56889.19;5050505;28;20036;-79
2023/09/05 03:50:23;;;;;;;6.95;3.92;;;16.10;99.90;;;-144.05;81.94;56901.94;5035064;28;20034;-79
2023/09/05 03:52:49;;;;;;;7.47;4.15;;;11.20;99.90;;;-144.05;82.04;56925.28;5035249;28;20028;-77
2023/09/05 03:55:16;;;;;;;9.45;4.72;;;11.20;99.90;;;-144.05;82.06;56908.31;5034997;28;20029;-78
2023/09/05 03:57:42;;;;;;;8.07;4.20;;;15.50;99.90;;;-144.05;82.46;56914.69;5033429;28;20029;-78
2023/09/05 04:00:09;;;;;;;6.55;3.97;;;15.90;99.90;;;-144.05;82.46;56910.44;5034353;28;20405;-77
2023/09/05 04:02:35;;;;;;;7.60;4.15;;;15.60;99.90;;;-144.05;82.65;56882.81;5034556;28;20026;-79
2023/09/05 04:05:01;;;;;;;11.98;5.40;;;16.10;99.90;;;-144.05;83.17;56901.94;5034358;28;20018;-78
2023/09/05 04:07:27;;;;;;;11.30;5.13;;;10.90;99.90;;;-144.05;83.22;56904.06;5034401;28;20025;-79
2023/09/05 04:09:53;;;;;;;12.00;4.30;;;11.20;99.90;;;-144.05;83.42;56893.44;5031256;28;20040;-78
2023/09/05 04:12:19;;;;;;;9.18;4.07;;;15.40;99.90;;;-144.05;83.38;56908.31;5034058;28;20052;-79
2023/09/05 04:14:45;;;;;;;7.88;4.10;;;11.10;99.90;;;-144.05;83.64;56893.44;5032942;28;20127;-77
2023/09/05 04:17:12;;;;;;;11.00;4.55;;;10.80;99.90;;;-144.05;83.71;56899.81;5034190;28;20111;-78
2023/09/05 04:19:38;;;;;;;7.95;5.10;;;;;;;-144.05;84.04;56880.69;5034001;28;20396;-80
2023/09/05 04:22:04;;;;;;;8.02;4.65;;;10.80;99.90;;;-144.05;83.99;56906.19;5034071;28;20033;-79
2023/09/05 04:24:30;;;;;;;9.73;5.20;;;10.90;99.90;;;-144.05;83.94;56921.06;5032766;28;20037;-78
2023/09/05 04:26:55;;;;;;;6.82;4.43;;;16.10;99.90;;;-144.05;83.93;56891.31;5034842;28;20053;-77
2023/09/05 04:29:21;;;;;;;7.50;4.40;;;;;;;-144.05;83.92;56857.34;5034045;28;20110;-78
2023/09/05 04:31:47;;;;;;;10.52;5.78;;;11.10;99.90;;;-144.05;83.54;56912.56;5034719;28;20473;-78
2023/09/05 04:34:13;;;;;;;12.57;5.32;;;15.90;99.90;;;-144.05;82.99;56910.44;5034215;28;20037;-77
2023/09/05 04:36:39;;;;;;;12.05;5.43;;;15.80;99.90;;;-144.05;83.09;56906.19;5034789;28;20029;-79
2023/09/05 04:39:05;;;;;;;8.63;4.65;;;;;;;-144.05;83.38;56910.44;5032707;28;20037;-79
2023/09/05 04:41:32;;;;;;;8.20;4.45;;;;;;;-144.05;83.57;56870.06;5033618;28;20029;-79
2023/09/05 04:43:58;;;;;;;7.85;4.82;;;;;;;-144.05;83.50;56870.06;5033563;28;20594;-78
2023/09/05 04:46:24;;;;;;;10.05;4.70;;;16.00;99.90;;;-144.05;83.65;56910.44;5033635;28;20049;-78
2023/09/05 04:48:50;;;;;;;8.68;4.50;;;15.80;99.90;;;-144.05;83.72;56944.41;5033605;28;20038;-77
2023/09/05 04:51:16;;;;;;;8.73;4.78;;;16.10;99.90;;;-144.05;83.97;56904.06;5033306;28;20029;-79
2023/09/05 04:53:42;;;;;;;8.13;4.55;;;;;;;-144.05;84.04;56908.31;5033564;28;20477;-78
2023/09/05 04:56:08;;;;;;;8.25;4.90;;;16.10;99.90;;;-144.05;84.13;56874.31;5033094;28;20163;-78
2023/09/05 04:58:34;;;;;;;7.35;4.82;;;15.00;99.90;;;-144.05;84.19;56906.19;5032945;28;20137;-79
2023/09/05 05:01:04;;;;;;;11.43;5.35;;;15.40;99.90;;;-144.05;84.39;56878.56;5048472;28;20072;-79
2023/09/05 05:03:32;;;;;;;8.77;5.50;;;10.90;99.90;;;-144.05;84.74;56925.28;5033653;28;20026;-78
2023/09/05 05:05:59;;;;;;;9.63;4.72;;;11.40;99.90;;;-144.05;84.74;56904.06;5033037;28;20022;-79
2023/09/05 05:08:25;;;;;;;9.43;5.40;;;11.70;99.90;;;-144.05;84.62;56916.81;5048218;28;20033;-79
2023/09/05 05:10:51;;;;;;;9.50;5.82;;;16.20;99.90;;;-144.05;84.64;56929.53;5033663;28;20119;-78
2023/09/05 05:13:20;;;;;;;10.95;5.35;;;15.80;99.90;;;-144.05;84.81;56887.06;5032999;28;20029;-79
2023/09/05 05:15:47;;;;;;;9.00;6.00;;;;;;;-144.05;85.09;56908.31;5033124;28;20030;-80
2023/09/05 05:18:15;;;;;;;7.97;5.45;;;15.90;99.90;;;-144.05;84.49;56912.56;5048539;28;20029;-78
2023/09/05 05:20:41;;;;;;;8.20;5.43;;;15.80;99.90;;;-144.05;83.41;56889.19;5033452;28;20069;-81
2023/09/05 05:23:07;;;;;;;8.02;5.05;;;11.80;99.90;;;-144.05;82.56;56897.69;5034119;28;20036;-79
2023/09/05 05:25:33;;;;;;;8.23;4.75;;;16.10;99.90;;;-144.05;82.04;56884.94;5033046;28;20025;-79
2023/09/05 05:27:59;;;;;;;8.38;4.80;;;14.80;99.90;;;-144.05;81.73;56891.31;5033501;28;20396;-79
2023/09/05 05:30:25;;;;;;;9.43;5.43;;;;;;;-144.05;81.37;56912.56;5056206;28;20037;-80
2023/09/05 05:32:51;;;;;;;6.80;4.78;;;16.50;99.90;;;-144.05;81.00;56923.19;5035213;28;20503;-79
2023/09/05 05:35:17;;;;;;;10.98;5.05;;;16.40;99.90;;;-144.05;80.59;56918.94;5036804;28;20029;-79
2023/09/05 05:37:43;;;;;;;8.13;4.68;;;;;;;-144.05;79.73;56893.44;5036164;28;20079;-79
2023/09/05 05:40:11;;;;;;;6.40;4.72;;;15.30;99.90;;;-144.05;79.10;56906.19;5035339;28;20499;-80
2023/09/05 05:42:37;;;;;;;8.65;4.13;;;12.40;99.90;;;-144.05;78.73;56904.06;5035605;28;20033;-79
2023/09/05 05:45:04;;;;;;;7.07;4.75;;;16.60;99.90;;;-144.05;78.49;56923.19;5033651;28;20124;-80
2023/09/05 05:47:31;;;;;;;5.47;3.65;;;17.00;99.90;;;-144.05;78.41;56887.06;5034809;28;20021;-80
2023/09/05 05:49:57;;;;;;;5.30;3.53;;;;;;;-144.05;78.45;56874.31;5034555;28;20102;-81
2023/09/05 05:52:23;;;;;;;7.13;4.40;;;13.00;99.90;;;-144.05;78.25;56916.81;5034313;28;20511;-80
2023/09/05 05:54:49;;;;;;;7.07;3.88;;;16.80;99.90;;;-144.05;78.17;56904.06;5028857;28;20496;-80
2023/09/05 05:57:15;;;;;;;7.45;4.28;;;16.90;99.90;;;-144.05;77.98;56912.56;5013608;28;20033;-78
2023/09/05 05:59:41;;;;;;;7.00;4.10;;;13.00;99.90;;;-144.05;78.73;56921.06;5015019;28;20049;-80
2023/09/05 06:02:07;;;;;;;7.45;3.90;;;16.00;99.90;;;-144.05;78.80;56893.44;5015439;28;20097;-79
2023/09/05 06:04:33;;;;;;;5.68;3.70;;;;;;;-144.05;78.93;56897.69;5013914;28;20026;-80
2023/09/05 06:06:59;;;;;;;6.35;3.70;;;18.10;99.90;;;-144.05;77.69;56929.53;5013982;28;20030;-80
2023/09/05 06:09:27;;;;;;;6.13;3.47;;;16.80;99.90;;;-144.05;76.70;56921.06;5013894;28;20476;-80
2023/09/05 06:11:53;;;;;;;6.03;3.10;;;17.90;99.90;;;-144.05;75.31;56925.28;5014410;28;20022;-80
2023/09/05 06:14:19;;;;;;;5.10;3.15;;;14.90;99.90;;;-144.05;73.16;56929.53;5015849;28;20084;-82
2023/09/05 06:16:49;;;;;;;3.63;2.78;;;18.90;99.90;;;-144.05;71.29;56942.28;5016097;28;20076;-80
2023/09/05 06:19:15;;;;;;;6.07;2.95;;;15.60;99.90;;;-144.05;68.87;56946.53;5015439;28;20025;-78
2023/09/05 06:21:46;;;;;;;4.35;2.53;;;19.10;99.90;;;-144.05;66.63;56946.53;5016214;28;20064;-78
2023/09/05 06:24:13;;;;;;;7.50;3.00;;;19.60;99.90;;;-144.05;64.39;56959.28;5014426;28;20026;-81
2023/09/05 06:26:41;;;;;;;5.82;2.92;;;16.60;99.90;;;-144.05;62.48;56969.91;5014207;28;20021;-81
2023/09/05 06:29:07;;;;;;;4.03;2.80;;;20.50;99.90;;;-144.05;60.89;56963.53;5014861;28;20030;-79
2023/09/05 06:31:33;;;;;;;5.28;3.13;;;;;;;-144.05;59.64;56955.03;5013989;28;20032;-79
2023/09/05 06:33:59;;;;;;;4.35;3.22;;;21.00;99.90;;;-144.05;58.80;56969.91;5016331;28;20038;-79
2023/09/05 06:36:25;;;;;;;7.13;3.28;;;19.60;99.90;;;-144.05;57.90;56961.41;5014846;28;20057;-78
2023/09/05 06:38:51;;;;;;;5.10;2.70;;;;;;;-144.05;57.46;56942.28;5015048;28;20038;-80
2023/09/05 06:41:17;;;;;;;9.60;3.33;;;21.30;99.90;;;-144.05;57.18;56974.16;5016362;28;20080;-78
2023/09/05 06:43:42;;;;;;;5.72;3.50;;;21.60;99.90;;;-144.05;57.32;56972.03;5016612;28;20478;-76
2023/09/05 06:46:09;;;;;;;6.35;3.00;;;;;;;-144.05;57.70;56989.00;5016363;28;20151;-76
2023/09/05 06:48:37;;;;;;;6.20;3.95;;;20.30;99.90;;;-144.05;57.12;56942.28;5016374;28;20033;-77
2023/09/05 06:51:04;;;;;;;5.30;3.47;;;;;;;-144.05;56.98;56978.41;5031658;28;20025;-76
2023/09/05 06:53:32;;;;;;;9.50;4.45;;;20.60;99.90;;;-144.05;56.14;56976.28;5016292;28;20025;-76
2023/09/05 06:55:59;;;;;;;7.85;4.20;;;22.00;99.90;;;-144.05;55.33;56948.66;5016532;28;20056;-77
2023/09/05 06:58:27;;;;;;;6.38;3.92;;;21.70;99.90;;;-144.05;55.64;56974.16;5016667;28;20034;-78
2023/09/05 07:00:56;;;;;;;4.47;3.42;;;18.20;99.90;;;-144.05;55.21;56963.53;5014677;28;20030;-77
2023/09/05 07:03:25;;;;;;;9.57;3.55;;;18.30;99.90;;;-144.05;54.87;56989.00;5014781;28;20026;-78
2023/09/05 07:05:56;;;;;;;8.27;3.83;;;18.30;99.90;;;-144.05;54.56;56972.03;5014493;28;20151;-78
2023/09/05 07:08:22;;;;;;;5.15;3.33;;;22.60;99.90;;;-144.05;53.84;57006.00;5015993;28;20033;-75
2023/09/05 07:10:48;;;;;;;6.13;3.70;;;19.00;99.90;;;-144.05;54.13;56986.91;5016110;28;20042;-76
2023/09/05 07:13:15;;;;;;;7.32;3.85;;;22.90;99.90;;;-144.05;52.62;56984.78;5015967;28;20033;-76
2023/09/05 07:15:43;;;;;;;9.63;3.70;;;22.80;99.90;;;-144.05;52.13;56976.28;5015818;28;20539;-76
2023/09/05 07:18:09;;;;;;;5.95;3.00;;;19.20;99.90;;;-144.05;51.92;57010.25;5015770;28;20404;-79
2023/09/05 07:20:35;;;;;;;4.47;3.08;;;19.20;99.90;;;-144.05;50.75;56976.28;5015795;28;20108;-81
2023/09/05 07:23:01;;;;;;;4.97;3.10;;;;;;;-144.05;50.41;57003.88;5020333;28;20048;-79
2023/09/05 07:25:27;;;;;;;5.00;2.83;;;;;;;-144.05;50.91;57016.63;5025167;28;20108;-80
2023/09/05 07:27:53;;;;;;;10.90;3.33;;;;;;;-144.05;50.00;57003.88;5017784;28;20611;-82
2023/09/05 07:30:19;;;;;;;5.13;2.95;;;24.00;99.90;;;-144.05;49.59;56986.91;5017148;28;20026;-82
2023/09/05 07:32:45;;;;;;;6.07;3.38;;;22.60;99.90;;;-144.05;49.06;56995.38;5016368;28;20022;-80
2023/09/05 07:35:11;;;;;;;5.68;2.67;;;20.50;99.90;;;-144.05;48.53;57018.75;5015940;28;20026;-81
2023/09/05 07:37:38;;;;;;;5.72;2.80;;;;;;;-144.05;48.19;57020.88;5016379;28;20053;-79
2023/09/05 07:40:08;;;;;;;6.43;3.63;;;24.60;99.90;;;-144.05;47.63;57018.75;5015157;28;20120;-81
2023/09/05 07:42:34;;;;;;;7.00;2.80;;;24.30;99.90;;;-144.05;46.90;57023.00;5015705;28;20033;-79
2023/09/05 07:45:04;;;;;;;4.38;2.72;;;24.70;99.90;;;-144.05;45.66;57035.75;5031166;28;20030;-80
2023/09/05 07:47:30;;;;;;;10.02;3.25;;;;;;;-144.05;44.78;57031.50;5030772;28;20030;-81
2023/09/05 07:49:56;;;;;;;6.03;3.15;;;25.20;99.90;;;-144.05;44.53;57035.75;5013948;28;20058;-80
2023/09/05 07:52:22;;;;;;;4.93;2.80;;;21.70;99.90;;;-144.05;43.96;57042.13;5015494;28;20508;-82
2023/09/05 07:54:47;;;;;;;4.53;2.85;;;25.10;99.90;;;-144.05;44.20;57040.00;5023683;28;20033;-78
2023/09/05 07:57:15;;;;;;;4.53;2.88;;;25.10;99.90;;;-144.05;44.80;57054.88;5035045;28;20029;-81
2023/09/05 07:59:40;;;;;;;7.22;2.80;;;21.60;99.90;;;-144.05;45.00;57067.59;5035570;28;20032;-78
2023/09/05 08:02:06;;;;;;;3.13;2.13;;;22.00;99.90;;;-144.05;44.14;57076.09;5050201;28;20033;-83
2023/09/05 08:04:32;;;;;;;6.90;2.90;;;22.10;99.90;;;-144.05;44.17;57073.97;5051138;28;20033;-82
2023/09/05 08:06:58;;;;;;;3.50;2.33;;;21.90;99.90;;;-144.05;43.89;57078.22;5035298;28;20095;-82
2023/09/05 08:09:24;;;;;;;6.80;3.10;;;26.70;99.90;;;-144.05;43.20;57090.97;5032812;28;20419;-80
2023/09/05 08:11:50;;;;;;;4.60;3.03;;;26.80;99.90;;;-144.05;43.65;57093.09;5034206;28;20136;-79
2023/09/05 08:14:16;;;;;;;6.30;1.98;;;26.80;99.90;;;-144.05;43.70;57090.97;5032894;28;20172;-79
2023/09/05 08:16:41;;;;;;;5.45;2.70;;;23.00;99.90;;;-144.05;42.99;57099.47;5033900;28;20037;-80
2023/09/05 08:19:07;;;;;;;3.72;2.45;;;23.10;99.90;;;-144.05;42.82;57127.09;5033925;28;20025;-79
2023/09/05 08:21:33;;;;;;;5.03;2.17;;;27.50;99.90;;;-144.05;42.53;57107.97;5033590;28;20116;-80
2023/09/05 08:23:59;;;;;;;5.63;2.53;;;27.00;99.90;;;-144.05;42.53;57122.84;5033824;28;20025;-79
2023/09/05 08:26:25;;;;;;;4.65;2.28;;;27.80;99.90;;;-144.05;42.60;57169.56;5033992;28;20033;-79
2023/09/05 08:28:51;;;;;;;5.85;2.85;;;27.30;99.90;;;-144.05;42.85;57135.56;5033858;28;20091;-82
2023/09/05 08:31:17;;;;;;;3.85;1.77;;;28.00;99.90;;;-144.05;42.12;57131.31;5039817;28;20025;-82
2023/09/05 08:33:43;;;;;;;3.75;2.13;;;28.40;99.90;;;-144.05;40.66;57167.44;5035695;28;20040;-82
2023/09/05 08:36:09;;;;;;;5.90;2.42;;;28.10;99.90;;;-144.05;37.86;57137.69;5036714;28;20061;-81
2023/09/05 08:38:37;;;;;;;4.38;1.70;;;27.60;99.90;;;-144.05;37.06;57152.56;5036440;28;20025;-81
2023/09/05 08:41:06;;;;;;;2.80;1.75;;;28.50;99.90;;;-144.05;36.66;57158.94;5035225;28;20040;-81
2023/09/05 08:43:34;;;;;;;2.20;1.50;;;29.10;99.90;;;-144.05;36.02;57186.56;5037517;28;20037;-80
2023/09/05 08:46:01;;;;;;;5.18;1.60;;;29.40;99.90;;;-144.05;36.20;57175.94;5035352;28;20252;-79
2023/09/05 08:48:28;;;;;;;2.78;1.90;;;26.50;99.90;;;-144.05;35.19;57214.16;5034950;28;20034;-80
2023/09/05 08:50:57;;;;;;;4.55;1.70;;;26.60;99.90;;;-144.05;35.10;57205.66;5034666;28;20078;-80
2023/09/05 08:53:36;;;;;;;3.42;1.90;;;28.20;99.90;;;-144.05;34.76;57216.28;5034665;28;20033;-81
2023/09/05 08:56:03;;;;;;;2.85;1.80;;;29.70;99.90;;;-144.05;34.58;57207.78;5049014;28;20049;-81
2023/09/05 08:58:31;;;;;;;3.53;1.80;;;29.70;99.90;;;-144.05;34.69;57235.41;5049095;28;20377;-81
2023/09/05 09:00:57;;;;;;;2.08;1.50;;;30.00;99.90;;;-144.05;33.74;57212.03;5049310;28;20044;-81
2023/09/05 09:03:23;;;;;;;3.40;1.60;;;29.60;99.90;;;-144.05;34.25;57226.91;5033293;28;20025;-81
2023/09/05 09:05:49;;;;;;;3.95;1.30;;;27.00;99.90;;;-144.05;33.89;57256.66;5034010;28;20413;-80
2023/09/05 09:08:19;;;;;;;2.00;1.40;;;29.40;99.90;;;-144.05;33.32;57220.53;5049036;28;20030;-81
2023/09/05 09:11:07;;;;;;;3.00;1.67;;;30.40;99.90;;;-144.05;33.32;57250.28;5032529;28;20116;-80
2023/09/05 09:13:33;;;;;;;1.83;1.42;;;26.80;99.90;;;-144.05;33.40;57235.41;5034379;28;20029;-81
2023/09/05 09:16:02;;;;;;;5.75;1.77;;;28.90;99.60;;;-144.05;32.76;57248.16;5035564;28;20531;-81
2023/09/05 09:18:31;;;;;;;2.10;1.52;;;26.90;99.90;;;-144.05;33.59;57248.16;5034183;28;20034;-80
2023/09/05 09:21:03;;;;;;;5.13;1.70;;;30.90;99.90;;;-144.05;33.47;57277.91;5034215;28;20465;-80
2023/09/05 09:23:35;;;;;;;2.58;1.45;;;29.40;99.00;;;-144.05;32.78;57288.50;5034148;28;20064;-82
2023/09/05 09:26:05;;;;;;;8.38;1.30;;;29.40;98.90;;;-144.05;32.48;57260.91;5033807;28;20029;-79
2023/09/05 09:28:32;;;;;;;1.40;1.20;;;31.20;99.00;;;-144.05;32.07;57286.38;5049440;28;20021;-78
2023/09/05 09:31:12;;;;;;;2.85;1.25;;;27.30;97.70;;;-144.05;32.52;57273.66;5035445;28;20100;-79
2023/09/05 09:33:40;;;;;;;1.60;1.15;;;31.20;98.30;;;-144.05;32.24;57307.63;5034498;28;20132;-79
2023/09/05 09:36:11;;;;;;;1.80;1.10;;;31.60;97.20;;;-144.05;31.70;57286.38;5034306;28;20037;-82
2023/09/05 09:38:39;;;;;;;2.55;1.50;;;31.10;95.90;;;-144.05;31.54;57282.16;5034777;28;20147;-84
2023/09/05 09:41:07;;;;;;;3.42;1.20;;;30.00;95.20;;;-144.05;31.50;57303.38;5050186;28;20030;-82
2023/09/05 09:43:37;;;;;;;2.28;1.25;;;30.10;95.10;;;-144.05;31.25;57316.13;5053486;28;20116;-84
2023/09/05 09:46:08;;;;;;;1.77;1.10;;;30.30;94.50;;;-144.05;30.94;57316.13;5050637;28;20025;-85
2023/09/05 09:48:36;;;;;;;1.70;1.27;;;31.80;95.10;;;-144.05;30.94;57301.25;5051649;28;20024;-86
2023/09/05 09:51:07;;;;;;;1.65;1.25;;;30.20;94.10;;;-144.05;30.73;57303.38;5052240;28;20033;-83
2023/09/05 09:53:39;;;;;;;3.28;1.20;;;31.90;95.90;;;-144.05;31.63;57335.25;5038145;28;20053;-84
2023/09/05 09:56:12;;;;;;;2.13;1.17;;;;;;;-144.05;30.35;57345.88;5051790;28;20044;-84
2023/09/05 09:58:42;;;;;;;2.30;1.20;;;28.50;93.30;;;-144.05;31.04;57314.00;5050291;28;20511;-87
2023/09/05 10:01:14;;;;;;;1.85;1.30;;;30.40;93.20;;;-144.05;30.69;57343.75;5033579;28;20038;-83
2023/09/05 10:03:44;;;;;;;1.80;1.20;;;30.60;93.70;;;-144.05;31.31;57324.63;5037488;28;20044;-83
2023/09/05 10:06:11;;;;;;;1.15;0.85;;;32.40;92.90;;;-144.05;30.32;57362.88;5036648;28;20032;-84
2023/09/05 10:08:39;;;;;;;1.40;0.95;;;32.10;92.80;;;-144.05;31.02;57324.63;5036706;28;20067;-84
2023/09/05 10:11:09;;;;;;;3.00;1.00;;;32.10;92.80;;;-144.05;30.53;57303.38;5050943;28;20503;-83
2023/09/05 10:13:40;;;;;;;4.63;1.38;;;31.60;93.50;;;-144.05;31.39;57282.16;5050305;28;20124;-83
2023/09/05 10:16:08;;;;;;;1.45;0.93;;;31.50;93.10;;;-144.05;31.06;57314.00;5034907;28;20156;-83